Aeroporto :
LOGIN :

Iscrizione | Disclaimer

   EN    FR    IT 

 










Sommario :    VFR   VFR Marginale   IFR   IFR Intensivo   IFR Molto Intensivo
Visibilità : 
Base nubi : 
>= 8 km
>= 3000ft
5 / 8 km
1000 / 3000 ft
1500m / 5 km
500 / 1000 ft
800 / 1500m
200 / 500 ft
< 800m
< 200 ft
Simboli :   Temporali  Nebbia  Neve Forte  Precipitazioni Forti  Vento > 20 kt
SIGMETs :   Varie  Temporali  Ghiacco  Turbolenza  Onda orograficha  Ceneri Vulcaniche






- Altitudine del aeroporto : 13 ft
- Codice IATA : SNR


LFRZ - St-Nazaire

ULTIMO METAR :
  • 070030Z AUTO 27005KT 240V300 9999 FEW013 BKN018 BKN027 11/11 Q1018 TEMPO 3000 BR BKN003

METARs OBSOLETI :
  • 070000Z AUTO 24007KT 9999 OVC046 11/10 Q1017 TEMPO 3000 BR BKN003
  • 062330Z AUTO 24007KT 9999 OVC045 11/10 Q1017 TEMPO 3000 BR BKN003
  • 062300Z AUTO 25007KT 9999 OVC047 11/10 Q1017 TEMPO 2000 BR BKN003
  • 062230Z AUTO 24007KT 9999 SCT042 BKN048 11/10 Q1017 TEMPO 2000 BR BKN003
  • 062200Z AUTO 22007KT 9999 SCT043 10/09 Q1017 TEMPO 2000 BR BKN003

TAF TAF LFRZ
Valido dal 07 a 00 ore il 08 a 00 ore UTC


062300Z 0700/0724 23006KT 9999 BKN040
TEMPO 0700/0711 3000 BR BKN003
BECMG 0713/0715 21012KT



MetMap, La meteo Aeronautica in un colpo d'occhio ! - Copyright ORBIFLY Dicembre 2007 - Disclaimer

ORBIFLY MET'MAP TEAM :

Programmazione e sviluppo : Alexandra Zaïnal
Concezione : Baudouin d'Aumeries
Aiuto per la programmazione : Marc-Olivier Méhu
Supporto tecnico e logistico : Manuel Goepfert
Aiuto per la traduzione : Arnaldo La Scala

Contatto : metmap@orbifly.com




FONTI E CREDITI :

   NOAA